Time;durP1;ratioP1;P1;durP2;ratioP2;P2;SDS_P1;SDS_P2;PMS_P1;PMS_P2;Temp;Humidity;BMP_temperature;BMP_pressure;BME280_temperature;BME280_humidity;BME280_pressure;Samples;Min_cycle;Max_cycle;Signal;HPM_P1;HPM_P2
2022/02/08 00:00:00;;;;;;;6.90;2.90;;;4.20;99.90;;;;;;4996490;28;20200;-89
2022/02/08 00:02:21;;;;;;;5.55;2.58;;;4.20;99.90;;;;;;4998206;28;20666;-88
2022/02/08 00:04:48;;;;;;;7.10;2.88;;;4.20;99.90;;;;;;4994133;28;20199;-89
2022/02/08 00:07:14;;;;;;;5.80;3.00;;;4.20;99.90;;;;;;4995533;28;20184;-88
2022/02/08 00:09:40;;;;;;;4.27;2.60;;;4.20;99.90;;;;;;4994224;28;20272;-89
2022/02/08 00:12:06;;;;;;;4.50;2.80;;;4.20;99.90;;;;;;4995922;28;20184;-89
2022/02/08 00:14:31;;;;;;;4.22;2.83;;;4.20;99.90;;;;;;4994197;28;20203;-88
2022/02/08 00:16:57;;;;;;;8.83;2.90;;;4.10;99.90;;;;;;4995742;28;20195;-88
2022/02/08 00:19:23;;;;;;;3.93;2.87;;;4.10;99.90;;;;;;4995092;28;20688;-88
2022/02/08 00:21:49;;;;;;;8.52;2.97;;;4.10;99.90;;;;;;4994058;28;20191;-89
2022/02/08 00:24:15;;;;;;;3.73;2.60;;;4.10;99.90;;;;;;5004863;28;20291;-88
2022/02/08 00:26:41;;;;;;;3.88;2.40;;;4.10;99.90;;;;;;5008020;28;20186;-88
2022/02/08 00:29:07;;;;;;;5.97;2.80;;;4.10;99.90;;;;;;5008798;28;20187;-86
2022/02/08 00:31:32;;;;;;;8.80;3.17;;;4.10;99.90;;;;;;4994512;28;20234;-88
2022/02/08 00:33:58;;;;;;;7.13;2.63;;;4.00;99.90;;;;;;4995459;28;20195;-88
2022/02/08 00:36:24;;;;;;;4.23;2.80;;;4.00;99.90;;;;;;4994021;28;20203;-89
2022/02/08 00:38:51;;;;;;;5.30;2.47;;;4.00;99.90;;;;;;4995189;28;20609;-88
2022/02/08 00:41:22;;;;;;;8.13;2.42;;;4.00;99.90;;;;;;4993997;28;20211;-87
2022/02/08 00:44:01;;;;;;;4.15;2.10;;;4.00;99.90;;;;;;4993822;28;20669;-88
2022/02/08 00:49:09;;;;;;;4.25;2.72;;;4.00;99.90;;;;;;4995263;28;20203;-88
2022/02/08 00:54:07;;;;;;;4.22;2.85;;;3.90;99.90;;;;;;4994910;28;20156;-88
2022/02/08 00:56:33;;;;;;;9.15;2.53;;;3.90;99.90;;;;;;4996514;28;20214;-86
2022/02/08 00:58:59;;;;;;;4.73;2.80;;;3.90;99.90;;;;;;4996609;28;20211;-88
2022/02/08 01:01:25;;;;;;;8.77;3.83;;;3.90;99.90;;;;;;4993621;28;20549;-88
2022/02/08 01:03:50;;;;;;;5.63;3.10;;;3.90;99.90;;;;;;4993740;28;20180;-89
2022/02/08 01:06:17;;;;;;;4.30;2.77;;;3.90;99.90;;;;;;4994957;28;20265;-88
2022/02/08 01:08:43;;;;;;;4.63;2.80;;;3.90;99.90;;;;;;4994047;28;20220;-88
2022/02/08 01:11:11;;;;;;;4.47;3.70;;;3.90;99.90;;;;;;5000342;28;20211;-88
2022/02/08 01:13:38;;;;;;;7.78;3.17;;;3.90;99.90;;;;;;5001643;28;20479;-88
2022/02/08 01:16:05;;;;;;;5.30;2.75;;;3.90;99.90;;;;;;4993395;28;20208;-88
2022/02/08 01:18:36;;;;;;;6.57;2.83;;;3.90;99.90;;;;;;4993697;28;20222;-88
2022/02/08 01:21:03;;;;;;;7.90;3.53;;;3.90;99.90;;;;;;4996712;28;20273;-89
2022/02/08 01:23:29;;;;;;;3.90;2.67;;;3.90;99.90;;;;;;4997215;28;20691;-89
2022/02/08 01:25:59;;;;;;;6.23;2.43;;;3.90;99.90;;;;;;4997228;28;20298;-89
2022/02/08 01:28:41;;;;;;;9.55;2.50;;;3.90;99.90;;;;;;5000607;28;20466;-87
2022/02/08 01:31:10;;;;;;;9.60;3.17;;;3.80;99.90;;;;;;4997215;28;20261;-88
2022/02/08 01:47:15;;;;;;;5.32;2.33;;;3.80;99.90;;;;;;4994496;28;20184;-88
2022/02/08 01:50:00;;;;;;;7.50;2.45;;;3.70;99.90;;;;;;4998606;28;20338;-88
2022/02/08 01:52:27;;;;;;;8.98;2.97;;;3.70;99.90;;;;;;4996611;28;20214;-88
2022/02/08 01:54:54;;;;;;;9.70;3.40;;;3.70;99.90;;;;;;4996357;28;20258;-88
2022/02/08 01:57:20;;;;;;;8.90;2.63;;;3.70;99.90;;;;;;4996582;28;20279;-89
2022/02/08 01:59:45;;;;;;;5.20;2.55;;;3.60;99.90;;;;;;4996763;28;20653;-88
2022/02/08 02:02:11;;;;;;;4.50;2.70;;;3.60;99.90;;;;;;4996621;28;20187;-89
2022/02/08 02:04:37;;;;;;;8.90;2.93;;;3.60;99.90;;;;;;4996541;28;20287;-88
2022/02/08 02:07:03;;;;;;;9.33;2.83;;;3.60;99.90;;;;;;5000643;28;20503;-89
2022/02/08 02:09:29;;;;;;;5.30;3.17;;;3.60;99.90;;;;;;4996376;28;20231;-88
2022/02/08 02:11:55;;;;;;;3.43;3.13;;;3.60;99.90;;;;;;4996560;28;20311;-89
2022/02/08 02:14:22;;;;;;;6.40;3.20;;;3.50;99.90;;;;;;4996313;28;20184;-88
2022/02/08 02:16:57;;;;;;;8.02;2.72;;;3.50;99.90;;;;;;4996382;28;20196;-89
2022/02/08 02:19:26;;;;;;;4.93;2.60;;;3.50;99.90;;;;;;5010147;28;20195;-88
2022/02/08 02:21:52;;;;;;;4.20;2.60;;;3.50;99.90;;;;;;4996981;28;20192;-88
2022/02/08 02:24:18;;;;;;;4.93;3.17;;;3.50;99.90;;;;;;4995876;28;20703;-89
2022/02/08 02:26:44;;;;;;;6.10;3.47;;;3.50;99.90;;;;;;4997531;28;20176;-88
2022/02/08 02:29:13;;;;;;;8.87;2.70;;;3.50;99.90;;;;;;4996470;28;20417;-88
2022/02/08 02:31:44;;;;;;;7.15;3.33;;;3.50;99.90;;;;;;4995914;28;21065;-88
2022/02/08 02:34:10;;;;;;;6.05;2.78;;;3.50;99.90;;;;;;4996777;28;20175;-89
2022/02/08 02:36:40;;;;;;;6.68;2.83;;;3.40;99.90;;;;;;4996044;28;20788;-88
2022/02/08 02:39:06;;;;;;;6.63;3.30;;;3.40;99.90;;;;;;4995290;28;20298;-88
2022/02/08 02:41:40;;;;;;;3.72;2.60;;;3.40;99.90;;;;;;4995806;28;20214;-88
2022/02/08 02:44:08;;;;;;;6.60;2.60;;;3.40;99.90;;;;;;4996074;28;20172;-88
2022/02/08 02:46:35;;;;;;;5.20;3.00;;;3.40;99.90;;;;;;4996930;28;20207;-88
2022/02/08 02:49:01;;;;;;;7.95;3.42;;;3.40;99.90;;;;;;4996704;28;20210;-88
2022/02/08 02:51:27;;;;;;;7.43;2.80;;;3.40;99.90;;;;;;4995634;28;20631;-88
2022/02/08 02:53:53;;;;;;;7.10;2.88;;;3.40;99.90;;;;;;4995844;28;20479;-88
2022/02/08 02:56:19;;;;;;;4.97;2.83;;;3.40;99.90;;;;;;4999544;28;20235;-88
2022/02/08 02:58:45;;;;;;;3.67;2.70;;;3.30;99.90;;;;;;5010188;28;20203;-88
2022/02/08 03:01:22;;;;;;;5.50;2.77;;;3.30;99.90;;;;;;5004295;28;20734;-88
2022/02/08 03:19:38;;;;;;;5.80;3.05;;;3.30;99.90;;;;;;4996234;28;20206;-88
2022/02/08 03:22:04;;;;;;;6.13;2.87;;;3.30;99.90;;;;;;4995214;28;20188;-88
2022/02/08 03:24:30;;;;;;;4.68;2.70;;;3.20;99.90;;;;;;4996145;28;20172;-89
2022/02/08 03:26:56;;;;;;;8.00;2.57;;;3.20;99.90;;;;;;4995352;28;20255;-88
2022/02/08 03:29:22;;;;;;;8.18;3.40;;;3.30;99.90;;;;;;4994930;28;20180;-88
2022/02/08 03:31:47;;;;;;;8.80;2.50;;;3.30;99.90;;;;;;4995703;28;20187;-89
2022/02/08 03:34:14;;;;;;;4.70;2.50;;;3.20;99.90;;;;;;5002883;28;20417;-89
2022/02/08 03:36:39;;;;;;;5.70;2.88;;;3.20;99.90;;;;;;4996157;28;20184;-89
2022/02/08 03:41:42;;;;;;;5.82;2.90;;;3.20;99.90;;;;;;4995587;28;20650;-88
2022/02/08 03:44:16;;;;;;;5.05;2.97;;;3.20;99.90;;;;;;4994355;28;20278;-88
2022/02/08 03:46:43;;;;;;;9.93;2.53;;;3.20;99.90;;;;;;4994803;28;20213;-89
2022/02/08 03:49:09;;;;;;;10.52;2.47;;;3.20;99.90;;;;;;4994462;28;20180;-88
2022/02/08 03:51:48;;;;;;;3.93;2.67;;;3.20;99.90;;;;;;4995945;28;20211;-88
2022/02/08 03:54:14;;;;;;;14.52;3.15;;;3.20;99.90;;;;;;4995460;28;20401;-88
2022/02/08 03:56:40;;;;;;;5.55;4.32;;;3.10;99.90;;;;;;4994871;28;20556;-87
2022/02/08 03:59:06;;;;;;;8.53;3.47;;;3.10;99.90;;;;;;4996039;28;20211;-88
2022/02/08 04:04:33;;;;;;;8.77;3.60;;;3.10;99.90;;;;;;4995702;28;20171;-88
2022/02/08 04:07:06;;;;;;;4.55;2.30;;;3.10;99.90;;;;;;4996657;28;20183;-88
2022/02/08 04:09:31;;;;;;;5.03;2.30;;;3.10;99.90;;;;;;4993817;28;20239;-88
2022/02/08 04:12:05;;;;;;;8.03;3.13;;;3.10;99.90;;;;;;5007465;28;20270;-88
2022/02/08 04:14:47;;;;;;;7.20;2.95;;;3.10;99.90;;;;;;4997561;28;20183;-88
2022/02/08 04:33:26;;;;;;;7.32;2.90;;;3.10;99.90;;;;;;4995369;28;20226;-88
2022/02/08 04:36:25;;;;;;;8.43;2.58;;;3.10;99.90;;;;;;4994072;28;20204;-89
2022/02/08 04:41:44;;;;;;;9.02;2.53;;;3.10;99.90;;;;;;4995573;28;20214;-87
2022/02/08 04:44:21;;;;;;;6.55;2.55;;;3.10;99.90;;;;;;4994810;28;20254;-89
2022/02/08 04:49:15;;;;;;;8.57;2.47;;;3.20;99.90;;;;;;4994932;28;20180;-87
2022/02/08 04:51:49;;;;;;;5.40;2.90;;;3.20;99.90;;;;;;4993818;28;20187;-88
2022/02/08 05:47:45;;;;;;;9.55;3.08;;;4.40;99.90;;;;;;4997766;28;20168;-88
2022/02/08 05:53:06;;;;;;;13.90;2.83;;;4.30;99.90;;;;;;4995252;28;20175;-88
2022/02/08 05:55:35;;;;;;;5.55;2.88;;;4.30;99.90;;;;;;4996321;28;20744;-88
2022/02/08 05:58:02;;;;;;;6.18;3.00;;;4.40;99.90;;;;;;4997136;28;20215;-89
2022/02/08 06:00:29;;;;;;;8.07;2.65;;;4.40;99.90;;;;;;4997101;28;20210;-88
2022/02/08 06:03:05;;;;;;;7.63;3.13;;;4.30;99.90;;;;;;4995912;28;20172;-88
2022/02/08 06:05:30;;;;;;;10.20;3.22;;;4.30;99.90;;;;;;5002256;28;20196;-88
2022/02/08 06:07:56;;;;;;;8.10;3.23;;;4.30;99.90;;;;;;5006947;28;20198;-87
2022/02/08 06:10:23;;;;;;;8.17;2.63;;;4.20;99.90;;;;;;5007501;28;20243;-87
2022/02/08 06:12:52;;;;;;;8.73;2.90;;;4.10;99.90;;;;;;4995739;28;20395;-89
2022/02/08 06:15:21;;;;;;;9.13;2.80;;;4.10;99.90;;;;;;4998885;28;20241;-89
2022/02/08 06:17:48;;;;;;;5.80;2.65;;;4.00;99.90;;;;;;4996038;28;20208;-87
2022/02/08 06:20:15;;;;;;;5.93;2.92;;;4.00;99.90;;;;;;4994951;28;20605;-89
2022/02/08 06:22:42;;;;;;;10.05;3.30;;;4.00;99.90;;;;;;4993631;28;20191;-89
2022/02/08 06:25:15;;;;;;;8.00;3.25;;;4.00;99.90;;;;;;4993866;28;20199;-89
2022/02/08 06:27:41;;;;;;;7.60;3.67;;;4.00;99.90;;;;;;4978696;28;20187;-90
2022/02/08 06:30:09;;;;;;;5.47;3.40;;;4.00;99.90;;;;;;4993825;28;20204;-88
2022/02/08 06:32:35;;;;;;;11.32;4.55;;;4.00;99.90;;;;;;4980894;28;20181;-89
2022/02/08 06:35:08;;;;;;;12.90;4.60;;;4.00;99.90;;;;;;5006504;28;20216;-89
2022/02/08 06:37:37;;;;;;;13.23;5.05;;;4.00;99.90;;;;;;4997787;28;20176;-90
2022/02/08 06:40:03;;;;;;;9.57;4.20;;;4.00;99.90;;;;;;4997438;28;20220;-89
2022/02/08 06:42:29;;;;;;;11.88;4.35;;;4.00;99.90;;;;;;5008034;28;20233;-89
2022/02/08 06:44:55;;;;;;;12.97;4.17;;;4.00;99.90;;;;;;4993153;28;20208;-88
2022/02/08 06:47:21;;;;;;;10.60;4.00;;;4.10;99.90;;;;;;4994684;28;20424;-88
2022/02/08 06:49:47;;;;;;;8.40;3.70;;;4.10;99.90;;;;;;4994678;28;20196;-88
2022/02/08 06:52:13;;;;;;;7.15;2.65;;;4.20;99.90;;;;;;4994964;28;20437;-88
2022/02/08 06:54:39;;;;;;;8.40;3.03;;;4.20;99.90;;;;;;4994410;28;20207;-89
2022/02/08 06:57:05;;;;;;;6.50;3.60;;;4.30;99.90;;;;;;4984177;28;20393;-89
2022/02/08 06:59:37;;;;;;;12.07;3.45;;;4.30;99.90;;;;;;4995712;28;20226;-90
2022/02/08 07:02:04;;;;;;;6.65;3.72;;;4.30;99.90;;;;;;4992034;28;20220;-88
2022/02/08 07:04:30;;;;;;;9.30;4.15;;;4.40;99.90;;;;;;4998207;28;20175;-88
2022/02/08 07:06:56;;;;;;;6.13;2.57;;;4.50;99.90;;;;;;5001361;28;20274;-90
2022/02/08 07:09:22;;;;;;;10.10;4.00;;;4.50;99.90;;;;;;4990184;28;20561;-88
2022/02/08 07:11:48;;;;;;;8.25;3.28;;;4.60;99.90;;;;;;4992161;28;20408;-89
2022/02/08 07:14:15;;;;;;;12.02;4.40;;;4.60;99.90;;;;;;4991975;28;20208;-89
2022/02/08 07:16:41;;;;;;;8.48;4.15;;;4.70;99.90;;;;;;4991990;28;20188;-90
2022/02/08 07:19:06;;;;;;;7.97;3.20;;;4.70;99.90;;;;;;4994711;28;20563;-88
2022/02/08 07:21:32;;;;;;;10.70;4.27;;;4.80;99.90;;;;;;4997887;28;20463;-89
2022/02/08 07:23:58;;;;;;;6.33;3.83;;;4.80;99.90;;;;;;4990014;28;20412;-90
2022/02/08 07:26:24;;;;;;;5.93;3.03;;;4.90;99.90;;;;;;4992852;28;20474;-90
2022/02/08 07:28:52;;;;;;;7.60;3.13;;;5.00;99.90;;;;;;4991217;28;20203;-88
2022/02/08 07:31:24;;;;;;;7.03;2.92;;;5.10;99.90;;;;;;4991809;28;20568;-88
2022/02/08 07:33:59;;;;;;;7.47;3.25;;;5.20;99.90;;;;;;4995636;28;20180;-89
2022/02/08 07:38:56;;;;;;;5.25;2.90;;;5.40;99.90;;;;;;4999404;28;20208;-90
2022/02/08 07:41:36;;;;;;;6.80;2.97;;;5.70;99.90;;;;;;5001213;28;20199;-88
2022/02/08 07:44:02;;;;;;;4.28;2.38;;;5.80;99.90;;;;;;4998452;28;20433;-90
2022/02/08 07:46:28;;;;;;;8.43;2.80;;;6.00;99.90;;;;;;5010313;28;20219;-89
2022/02/08 07:48:53;;;;;;;7.33;3.13;;;6.20;99.90;;;;;;4998556;28;20198;-91
2022/02/08 07:51:22;;;;;;;5.87;3.20;;;6.30;99.90;;;;;;4984658;28;20506;-89
2022/02/08 07:53:48;;;;;;;6.57;3.30;;;6.50;99.90;;;;;;4991121;28;20185;-90
2022/02/08 07:56:15;;;;;;;6.23;2.30;;;6.70;99.90;;;;;;4990977;28;20224;-89
2022/02/08 07:58:41;;;;;;;7.57;3.25;;;6.90;99.90;;;;;;5009736;28;20211;-90
2022/02/08 08:01:08;;;;;;;4.83;2.40;;;7.30;99.90;;;;;;4997616;28;20211;-89
2022/02/08 08:03:40;;;;;;;5.68;2.15;;;7.80;99.90;;;;;;4993608;28;20446;-88
2022/02/08 08:06:07;;;;;;;10.68;3.30;;;8.40;99.90;;;;;;4988532;28;20203;-89
2022/02/08 08:08:33;;;;;;;5.85;2.33;;;9.00;99.90;;;;;;4993680;28;20239;-90
2022/02/08 08:11:01;;;;;;;11.37;7.83;;;9.70;99.90;;;;;;4994257;28;20270;-90
2022/02/08 08:13:27;;;;;;;25.58;12.65;;;10.50;99.90;;;;;;4992847;28;20407;-90
2022/02/08 08:16:01;;;;;;;9.75;4.53;;;11.30;99.90;;;;;;5009437;28;20204;-88
2022/02/08 08:20:59;;;;;;;16.92;7.90;;;12.50;96.40;;;;;;4994564;28;20735;-90
2022/02/08 08:23:25;;;;;;;17.90;7.27;;;13.10;95.20;;;;;;4994132;28;20176;-89
2022/02/08 08:25:53;;;;;;;13.33;5.17;;;13.60;93.40;;;;;;4992969;28;20203;-89
2022/02/08 08:28:19;;;;;;;6.50;2.37;;;14.10;92.10;;;;;;4992181;28;20187;-89
2022/02/08 08:30:45;;;;;;;7.70;4.90;;;14.60;90.80;;;;;;4990116;28;20556;-89
2022/02/08 08:33:11;;;;;;;5.03;2.50;;;15.10;88.80;;;;;;4998999;28;20834;-89
2022/02/08 08:35:39;;;;;;;6.47;3.47;;;15.50;86.20;;;;;;4999491;28;20432;-90
2022/02/08 08:38:07;;;;;;;6.23;3.63;;;15.90;83.30;;;;;;4990620;28;20548;-89
2022/02/08 08:40:50;;;;;;;4.90;2.07;;;16.20;81.80;;;;;;4992327;28;20464;-90
2022/02/08 08:43:37;;;;;;;7.83;4.00;;;16.50;80.30;;;;;;4990043;28;21006;-91
2022/02/08 08:51:32;;;;;;;6.10;2.17;;;17.70;76.00;;;;;;4989320;28;20553;-89
2022/02/08 08:53:58;;;;;;;4.73;2.90;;;18.00;74.30;;;;;;4992151;28;20681;-89
2022/02/08 08:56:24;;;;;;;5.87;3.03;;;18.40;73.70;;;;;;4999791;28;20457;-90
2022/02/08 08:58:50;;;;;;;5.00;2.47;;;18.80;71.00;;;;;;4992246;28;20274;-89
2022/02/08 09:01:16;;;;;;;7.03;2.50;;;19.00;69.30;;;;;;5007726;28;20460;-89
2022/02/08 09:03:44;;;;;;;7.13;2.60;;;18.90;69.20;;;;;;4994996;28;20191;-89
2022/02/08 09:06:10;;;;;;;4.17;2.70;;;18.90;69.60;;;;;;4992002;28;20253;-91
2022/02/08 09:08:39;;;;;;;7.87;3.00;;;19.00;68.70;;;;;;4991768;28;20436;-90
2022/02/08 09:11:14;;;;;;;10.13;3.33;;;18.90;68.20;;;;;;4993640;28;20501;-89
2022/02/08 09:14:03;;;;;;;6.03;3.30;;;18.90;68.00;;;;;;4998382;28;20429;-89
2022/02/08 09:29:40;;;;;;;12.30;8.63;;;18.50;66.80;;;;;;4986556;28;20437;-88
2022/02/08 09:35:01;;;;;;;7.43;2.40;;;18.60;65.50;;;;;;4990819;28;20510;-88
2022/02/08 09:37:27;;;;;;;4.60;2.30;;;18.40;66.30;;;;;;4989722;28;20433;-88
2022/02/08 09:39:53;;;;;;;7.20;1.90;;;18.10;65.80;;;;;;4990710;28;20783;-89
2022/02/08 09:42:19;;;;;;;7.00;2.43;;;17.80;66.00;;;;;;4992349;28;20753;-88
2022/02/08 09:44:45;;;;;;;6.40;2.37;;;17.80;66.20;;;;;;4995299;28;20437;-88
2022/02/08 09:47:15;;;;;;;5.97;1.93;;;18.00;67.00;;;;;;4994592;28;20441;-89
2022/02/08 09:49:52;;;;;;;5.07;2.47;;;18.40;65.60;;;;;;5002805;28;20212;-90
2022/02/08 09:52:20;;;;;;;3.87;1.70;;;18.80;66.10;;;;;;4998488;28;20530;-89
2022/02/08 09:54:46;;;;;;;12.73;1.80;;;19.10;65.20;;;;;;5001273;28;20458;-89
2022/02/08 09:57:13;;;;;;;3.50;2.10;;;19.60;64.80;;;;;;4995532;28;20452;-89
2022/02/08 09:59:39;;;;;;;2.90;1.70;;;19.80;63.20;;;;;;4995376;28;20486;-89
2022/02/08 10:02:05;;;;;;;5.07;2.10;;;19.90;63.00;;;;;;4995337;28;20537;-89
2022/02/08 10:04:31;;;;;;;4.67;1.80;;;19.80;61.70;;;;;;4997114;28;20759;-89
2022/02/08 10:07:10;;;;;;;12.03;2.57;;;19.60;61.40;;;;;;4991680;28;20275;-88
2022/02/08 10:09:36;;;;;;;6.47;2.07;;;19.40;62.40;;;;;;4988110;28;20477;-87
2022/02/08 10:12:02;;;;;;;6.20;2.10;;;19.20;62.70;;;;;;4990589;28;21016;-88
2022/02/08 10:14:52;;;;;;;5.33;2.40;;;18.90;62.30;;;;;;4992567;28;20251;-88
2022/02/08 10:23:10;;;;;;;9.20;2.40;;;17.50;64.10;;;;;;4955984;28;20429;-87
2022/02/08 10:25:50;;;;;;;6.80;2.73;;;16.80;64.50;;;;;;4989238;28;20813;-88
2022/02/08 10:28:29;;;;;;;8.07;2.17;;;16.30;65.90;;;;;;4991687;28;20453;-87
2022/02/08 10:31:26;;;;;;;3.80;1.70;;;15.90;66.30;;;;;;4992330;28;20523;-88
2022/02/08 10:39:26;;;;;;;5.10;2.30;;;14.70;67.90;;;;;;4993596;28;21039;-88
2022/02/08 10:41:53;;;;;;;8.47;1.67;;;14.40;69.10;;;;;;4979236;28;20454;-88
2022/02/08 10:44:19;;;;;;;4.77;2.00;;;14.30;69.00;;;;;;5008867;28;20448;-88
2022/02/08 10:46:45;;;;;;;6.27;1.97;;;14.10;70.30;;;;;;4995325;28;20455;-88
2022/02/08 10:49:15;;;;;;;5.97;2.67;;;14.00;69.80;;;;;;4996745;28;20426;-88
2022/02/08 10:51:52;;;;;;;3.60;1.70;;;13.90;69.70;;;;;;4993102;28;20441;-88
2022/02/08 10:56:52;;;;;;;4.10;1.90;;;13.80;70.00;;;;;;4990977;28;20857;-89
2022/02/08 10:59:25;;;;;;;6.47;2.37;;;13.80;70.10;;;;;;4988352;28;21053;-88
2022/02/08 11:02:02;;;;;;;6.10;1.87;;;13.70;70.60;;;;;;5001403;28;20433;-88
2022/02/08 11:05:01;;;;;;;6.13;1.90;;;13.60;70.50;;;;;;4989570;28;20437;-88
2022/02/08 11:13:12;;;;;;;8.93;2.60;;;13.40;71.30;;;;;;4990825;28;20421;-88
2022/02/08 11:15:45;;;;;;;8.97;2.87;;;13.40;70.90;;;;;;5008370;28;20461;-88
2022/02/08 11:20:50;;;;;;;3.33;3.00;;;13.20;70.60;;;;;;5000412;28;20522;-88
2022/02/08 11:23:30;;;;;;;5.43;2.07;;;13.20;72.30;;;;;;4991773;28;20441;-88
2022/02/08 11:25:56;;;;;;;8.90;3.30;;;13.20;72.70;;;;;;4993744;28;20943;-88
2022/02/08 11:28:29;;;;;;;6.23;2.10;;;13.20;71.90;;;;;;4992502;28;20455;-88
2022/02/08 11:47:35;;;;;;;7.13;2.90;;;12.90;71.50;;;;;;5007199;28;20200;-89
2022/02/08 12:07:47;;;;;;;4.90;2.07;;;13.00;72.20;;;;;;4985712;28;20557;-88
2022/02/08 12:10:23;;;;;;;5.37;2.20;;;13.10;71.30;;;;;;4985692;28;20887;-88
2022/02/08 12:35:23;;;;;;;3.73;2.37;;;13.00;72.30;;;;;;4996420;28;20449;-88
2022/02/08 12:54:46;;;;;;;3.73;1.93;;;12.60;72.90;;;;;;4971967;28;20942;-89
2022/02/08 12:57:38;;;;;;;3.10;1.93;;;12.50;73.90;;;;;;4990281;28;20449;-89
2022/02/08 13:03:17;;;;;;;4.15;2.45;;;12.30;73.60;;;;;;4991527;28;20188;-89
2022/02/08 14:08:26;;;;;;;7.03;3.47;;;11.60;79.50;;;;;;4992208;28;20183;-88
2022/02/08 14:24:31;;;;;;;7.20;3.83;;;12.00;79.50;;;;;;4967751;28;20196;-87
2022/02/08 14:30:07;;;;;;;12.07;3.35;;;12.10;79.30;;;;;;4992995;28;20246;-87
2022/02/08 14:35:33;;;;;;;6.25;4.30;;;12.00;78.60;;;;;;5002531;28;20210;-91
2022/02/08 14:49:03;;;;;;;8.70;2.83;;;11.60;77.50;;;;;;4990426;28;20727;-90
2022/02/08 15:10:26;;;;;;;6.43;3.55;;;12.00;76.70;;;;;;4989685;28;20239;-90
2022/02/08 15:12:57;;;;;;;8.50;5.35;;;12.00;76.70;;;;;;4989816;28;20271;-87
2022/02/08 15:18:18;;;;;;;9.80;4.32;;;11.70;77.30;;;;;;4971997;28;20227;-89
2022/02/08 15:20:44;;;;;;;8.30;4.80;;;11.60;78.00;;;;;;4986939;28;20226;-89
2022/02/08 15:23:11;;;;;;;8.83;5.20;;;11.40;78.70;;;;;;4988263;28;20184;-86
2022/02/08 15:25:38;;;;;;;6.47;5.63;;;11.20;78.90;;;;;;4990338;28;20222;-90
2022/02/08 15:28:05;;;;;;;13.77;8.75;;;11.10;79.20;;;;;;5002728;28;20184;-87
2022/02/08 15:30:33;;;;;;;12.27;6.80;;;11.00;79.60;;;;;;4987390;28;20655;-86
2022/02/08 15:32:59;;;;;;;7.13;4.10;;;10.90;79.80;;;;;;4989340;28;20405;-88
2022/02/08 15:35:25;;;;;;;6.18;4.55;;;10.80;80.00;;;;;;4985529;28;20277;-87
2022/02/08 15:37:52;;;;;;;7.53;5.35;;;10.70;80.00;;;;;;4989374;28;20276;-87
2022/02/08 15:40:20;;;;;;;13.80;12.05;;;10.60;79.90;;;;;;4988818;28;20251;-88
2022/02/08 15:42:48;;;;;;;16.58;12.80;;;10.50;80.20;;;;;;4988702;28;20868;-89
2022/02/08 15:45:23;;;;;;;14.88;12.05;;;10.30;80.40;;;;;;4986505;28;20199;-88
2022/02/08 15:47:50;;;;;;;10.85;8.60;;;10.30;80.80;;;;;;4977468;28;20195;-89
2022/02/08 15:50:25;;;;;;;12.43;7.25;;;10.20;80.90;;;;;;4979587;28;20868;-88
2022/02/08 16:06:42;;;;;;;12.60;9.75;;;9.80;82.00;;;;;;4988333;28;21023;-91
2022/02/08 16:08:30;;;;;;;18.95;13.43;;;9.80;82.10;;;;;;4989695;28;20293;-90
2022/02/08 16:16:15;;;;;;;8.90;7.07;;;9.70;83.90;;;;;;4988571;28;20204;-90
2022/02/08 16:19:01;;;;;;;11.00;6.97;;;9.70;82.90;;;;;;4988523;28;20428;-90
2022/02/08 16:24:17;;;;;;;16.25;11.77;;;9.70;82.50;;;;;;4972322;28;20176;-90
2022/02/08 16:32:20;;;;;;;18.73;10.50;;;9.80;82.90;;;;;;4992489;28;20409;-89
2022/02/08 16:52:14;;;;;;;14.25;9.63;;;10.00;83.40;;;;;;4998495;28;20704;-90
2022/02/08 16:59:50;;;;;;;15.30;9.18;;;10.00;82.90;;;;;;4984390;28;20242;-89
2022/02/08 17:02:21;;;;;;;10.07;6.90;;;9.90;83.00;;;;;;4997160;28;20188;-87
2022/02/08 17:04:47;;;;;;;14.02;9.20;;;9.80;83.40;;;;;;5001904;28;20219;-92
2022/02/08 17:07:13;;;;;;;11.73;4.90;;;9.80;83.40;;;;;;5009423;28;20180;-92
2022/02/08 17:09:58;;;;;;;9.87;4.40;;;9.70;84.50;;;;;;5002559;28;20452;-90
2022/02/08 17:12:36;;;;;;;6.45;5.22;;;9.70;83.70;;;;;;4998787;28;20441;-89
2022/02/08 17:47:43;;;;;;;9.85;7.20;;;9.40;84.40;;;;;;5011205;28;20199;-91
2022/02/08 17:50:14;;;;;;;9.95;5.53;;;9.30;84.50;;;;;;4996412;28;20692;-90
2022/02/08 17:52:41;;;;;;;12.23;5.80;;;9.30;84.40;;;;;;5008743;28;20212;-91
2022/02/08 17:55:09;;;;;;;11.63;5.18;;;9.20;84.40;;;;;;4994792;28;20250;-91
2022/02/08 17:57:35;;;;;;;10.40;6.72;;;9.20;84.90;;;;;;4991451;28;20279;-91
2022/02/08 18:00:04;;;;;;;10.03;6.43;;;9.20;85.40;;;;;;4992809;28;20302;-90
2022/02/08 18:02:30;;;;;;;7.88;5.85;;;9.20;85.50;;;;;;4997083;28;20420;-89
2022/02/08 18:04:57;;;;;;;10.80;6.30;;;9.20;85.70;;;;;;4996819;28;20235;-88
2022/02/08 18:07:24;;;;;;;12.30;7.10;;;9.20;85.80;;;;;;5004774;28;20474;-89
2022/02/08 18:09:52;;;;;;;13.45;7.32;;;9.10;86.00;;;;;;5018525;28;20244;-89
2022/02/08 18:12:20;;;;;;;8.93;5.68;;;9.10;86.50;;;;;;5009858;28;20244;-88
2022/02/08 18:14:51;;;;;;;7.50;6.65;;;9.10;86.60;;;;;;4992978;28;20234;-89
2022/02/08 18:17:24;;;;;;;6.47;5.43;;;9.10;87.10;;;;;;4995118;28;20188;-89
2022/02/08 18:19:59;;;;;;;9.40;6.63;;;9.10;87.50;;;;;;4994585;28;20234;-90
2022/02/08 19:13:27;;;;;;;12.67;4.93;;;8.90;91.80;;;;;;5008942;28;20567;-89
2022/02/08 19:19:35;;;;;;;9.20;6.28;;;8.90;92.50;;;;;;4993342;28;20211;-89
2022/02/08 19:23:52;;;;;;;5.40;3.40;;;8.90;93.00;;;;;;4996162;28;20179;-90
2022/02/08 19:26:18;;;;;;;8.80;4.87;;;8.90;93.20;;;;;;4995363;28;20445;-90
2022/02/08 19:28:47;;;;;;;6.55;4.00;;;8.90;93.60;;;;;;4991407;28;20188;-90
2022/02/08 19:31:19;;;;;;;7.68;4.10;;;8.90;93.80;;;;;;5007968;28;20223;-88
2022/02/08 19:33:48;;;;;;;5.30;3.70;;;8.90;94.00;;;;;;4993268;28;20206;-90
2022/02/08 19:36:15;;;;;;;4.55;3.50;;;8.90;94.20;;;;;;4994311;28;20207;-89
2022/02/08 19:38:43;;;;;;;3.65;2.83;;;8.90;94.40;;;;;;4993446;28;20214;-88
2022/02/08 19:41:08;;;;;;;6.30;3.22;;;8.90;94.60;;;;;;4994097;28;20203;-88
2022/02/08 19:43:34;;;;;;;5.33;2.73;;;8.90;94.80;;;;;;4994654;28;20180;-86
2022/02/08 19:46:00;;;;;;;4.93;3.63;;;8.90;95.00;;;;;;4996094;28;20510;-88
2022/02/08 19:48:26;;;;;;;9.43;3.95;;;8.90;95.20;;;;;;4994955;28;20407;-88
2022/02/08 19:50:52;;;;;;;4.90;3.50;;;9.00;95.50;;;;;;5007461;28;20207;-89
2022/02/08 19:53:18;;;;;;;9.63;5.10;;;9.00;95.60;;;;;;5001211;28;20412;-89
2022/02/08 19:56:02;;;;;;;11.05;6.72;;;9.00;95.80;;;;;;5006339;28;20449;-89
2022/02/08 19:58:30;;;;;;;7.50;4.47;;;9.00;95.90;;;;;;5002328;28;20215;-89
2022/02/08 20:01:05;;;;;;;9.65;5.85;;;8.90;96.10;;;;;;4995306;28;20210;-90
2022/02/08 20:03:41;;;;;;;9.48;3.83;;;9.00;96.30;;;;;;4999748;28;20191;-89
2022/02/08 20:06:08;;;;;;;5.55;3.40;;;9.00;96.50;;;;;;4995665;28;20215;-89
2022/02/08 20:08:34;;;;;;;7.13;4.30;;;8.90;96.60;;;;;;4994776;28;20203;-89
2022/02/08 20:11:00;;;;;;;8.90;4.22;;;8.90;96.80;;;;;;4994563;28;20228;-88
2022/02/08 20:13:27;;;;;;;6.40;4.30;;;8.90;97.00;;;;;;4996230;28;20198;-90
2022/02/08 20:15:55;;;;;;;4.80;3.35;;;8.90;97.20;;;;;;4998157;28;20453;-89
2022/02/08 20:18:22;;;;;;;4.85;3.70;;;8.90;97.30;;;;;;4985274;28;20306;-88
2022/02/08 20:20:48;;;;;;;4.25;3.20;;;8.90;97.30;;;;;;4982130;28;20212;-89
2022/02/08 20:23:16;;;;;;;5.55;2.88;;;8.90;97.40;;;;;;4997689;28;20215;-90
2022/02/08 20:25:49;;;;;;;3.95;2.70;;;8.90;97.40;;;;;;4994129;28;20203;-89
2022/02/08 20:28:20;;;;;;;5.65;3.13;;;8.80;97.40;;;;;;4989329;28;20199;-89
2022/02/08 20:30:46;;;;;;;5.57;2.67;;;8.80;97.50;;;;;;5006198;28;20207;-89
2022/02/08 20:33:12;;;;;;;8.30;3.13;;;8.90;97.70;;;;;;4991371;28;20184;-89
2022/02/08 20:35:39;;;;;;;4.78;3.15;;;8.90;97.60;;;;;;4993170;28;21057;-90
2022/02/08 20:38:06;;;;;;;5.07;3.10;;;8.80;97.40;;;;;;4991213;28;20176;-90
2022/02/08 20:40:39;;;;;;;8.13;3.03;;;8.80;97.30;;;;;;4992384;28;20204;-89
2022/02/08 20:43:09;;;;;;;3.63;2.65;;;8.80;97.30;;;;;;4992611;28;20210;-89
2022/02/08 20:45:36;;;;;;;7.95;3.45;;;8.80;97.10;;;;;;4992743;28;20214;-88
2022/02/08 20:48:03;;;;;;;5.93;3.33;;;8.80;97.10;;;;;;4991935;28;20183;-89
2022/02/08 20:50:29;;;;;;;3.42;3.00;;;8.80;97.10;;;;;;4993756;28;20200;-90
2022/02/08 20:52:59;;;;;;;4.33;3.30;;;8.70;97.00;;;;;;4992532;28;20546;-89
2022/02/08 20:55:37;;;;;;;8.00;3.92;;;8.70;96.90;;;;;;4992726;28;20927;-89
2022/02/08 20:58:13;;;;;;;6.80;3.78;;;8.70;96.90;;;;;;5006082;28;20192;-89
2022/02/08 21:00:38;;;;;;;10.45;4.32;;;8.60;97.00;;;;;;4992010;28;20258;-90
2022/02/08 21:03:24;;;;;;;9.20;5.33;;;8.60;97.00;;;;;;4992409;28;20172;-89
2022/02/08 21:06:06;;;;;;;3.42;3.08;;;8.60;97.10;;;;;;4991832;28;20214;-90
2022/02/08 21:08:33;;;;;;;9.80;3.67;;;8.60;97.10;;;;;;4993678;28;20184;-89
2022/02/08 21:11:00;;;;;;;4.40;3.38;;;8.50;97.10;;;;;;4992799;28;20231;-89
2022/02/08 21:13:42;;;;;;;4.00;3.30;;;8.50;97.30;;;;;;4993299;28;20176;-89
2022/02/08 21:16:13;;;;;;;6.60;3.00;;;8.50;97.40;;;;;;4993719;28;20215;-89
2022/02/08 21:18:39;;;;;;;5.18;3.67;;;8.40;97.50;;;;;;4993109;28;20219;-90